Time;durP1;ratioP1;P1;durP2;ratioP2;P2;SDS_P1;SDS_P2;PMS_P1;PMS_P2;Temp;Humidity;BMP_temperature;BMP_pressure;BME280_temperature;BME280_humidity;BME280_pressure;Samples;Min_cycle;Max_cycle;Signal;HPM_P1;HPM_P2
2022/10/02 00:02:29;;;;;;;6.45;1.77;;;12.80;99.90;;;;;;5075342;28;20036;-75
2022/10/02 00:05:16;;;;;;;8.00;1.70;;;12.80;99.90;;;;;;5062912;28;20106;-75
2022/10/02 00:08:06;;;;;;;9.50;2.33;;;12.80;99.90;;;;;;5075091;28;20032;-75
2022/10/02 00:10:46;;;;;;;8.00;1.90;;;12.80;99.90;;;;;;5074869;28;20108;-75
2022/10/02 00:13:18;;;;;;;13.13;2.70;;;12.80;99.90;;;;;;5061976;28;20107;-76
2022/10/02 00:15:45;;;;;;;21.45;3.30;;;12.90;99.90;;;;;;5075244;28;20101;-75
2022/10/02 00:18:14;;;;;;;11.55;2.55;;;12.90;99.90;;;;;;5074436;28;20107;-75
2022/10/02 00:20:52;;;;;;;20.23;3.70;;;13.00;99.90;;;;;;5074878;28;20032;-75
2022/10/02 00:23:45;;;;;;;13.75;3.83;;;13.00;99.90;;;;;;5074654;28;20481;-75
2022/10/02 00:26:15;;;;;;;16.10;3.13;;;13.10;99.90;;;;;;5075030;28;20063;-75
2022/10/02 00:28:59;;;;;;;14.23;3.22;;;13.30;99.90;;;;;;5074501;28;20021;-76
2022/10/02 00:31:51;;;;;;;25.75;4.82;;;13.20;99.90;;;;;;5073793;28;20028;-76
2022/10/02 00:34:38;;;;;;;16.92;3.65;;;13.20;99.90;;;;;;5063284;28;20380;-75
2022/10/02 00:37:24;;;;;;;16.10;4.78;;;13.20;99.90;;;;;;5074605;28;20024;-76
2022/10/02 00:40:04;;;;;;;23.88;3.92;;;13.30;99.90;;;;;;5074670;28;20029;-76
2022/10/02 00:42:41;;;;;;;18.93;4.10;;;13.30;99.90;;;;;;5060241;28;20025;-75
2022/10/02 00:45:27;;;;;;;27.40;4.68;;;13.40;99.90;;;;;;5072868;28;20067;-76
2022/10/02 00:48:18;;;;;;;19.60;3.70;;;13.50;99.90;;;;;;5068044;28;20495;-75
2022/10/02 00:50:58;;;;;;;19.80;4.18;;;13.60;99.90;;;;;;5073808;28;20033;-77
2022/10/02 00:53:39;;;;;;;27.65;4.28;;;13.60;99.90;;;;;;5073221;28;20472;-75
2022/10/02 00:56:17;;;;;;;22.33;5.18;;;13.70;99.90;;;;;;5073671;28;20025;-76
2022/10/02 00:59:11;;;;;;;28.02;4.45;;;13.70;99.90;;;;;;5074036;28;20043;-76
2022/10/02 01:01:43;;;;;;;27.88;5.03;;;13.70;99.90;;;;;;5073556;28;20103;-75
2022/10/02 01:04:17;;;;;;;30.55;5.15;;;13.80;99.90;;;;;;5074193;28;20047;-76
2022/10/02 01:06:43;;;;;;;20.58;4.00;;;13.80;99.90;;;;;;5073175;28;20570;-75
2022/10/02 01:09:09;;;;;;;23.17;4.10;;;13.90;99.90;;;;;;5074223;28;20032;-76
2022/10/02 01:11:37;;;;;;;25.00;4.43;;;14.60;99.90;;;;;;5073938;28;20020;-77
2022/10/02 01:14:03;;;;;;;29.02;5.07;;;13.90;99.90;;;;;;5073388;28;20084;-76
2022/10/02 01:16:30;;;;;;;29.70;4.85;;;13.90;99.90;;;;;;5074162;28;20037;-76
2022/10/02 01:18:56;;;;;;;20.48;4.82;;;13.90;99.90;;;;;;5073760;28;20036;-76
2022/10/02 01:21:21;;;;;;;20.08;3.78;;;13.90;99.90;;;;;;5072864;28;20392;-76
2022/10/02 01:23:53;;;;;;;19.13;4.03;;;13.90;99.90;;;;;;5073434;28;20031;-76
2022/10/02 01:26:19;;;;;;;25.58;4.00;;;14.00;99.90;;;;;;5074033;28;20068;-77
2022/10/02 01:28:45;;;;;;;25.63;3.88;;;14.00;99.90;;;;;;5072561;28;20048;-77
2022/10/02 01:31:14;;;;;;;19.15;3.60;;;13.90;99.90;;;;;;5073731;28;20482;-77
2022/10/02 01:33:41;;;;;;;15.88;3.97;;;13.90;99.90;;;;;;5073046;28;20059;-76
2022/10/02 01:36:09;;;;;;;18.17;3.97;;;13.90;99.90;;;;;;5072882;28;20104;-76
2022/10/02 01:38:35;;;;;;;22.25;3.92;;;13.90;99.90;;;;;;5073037;28;20559;-75
2022/10/02 01:41:00;;;;;;;24.05;3.25;;;13.90;99.90;;;;;;5073438;28;20020;-76
2022/10/02 01:43:33;;;;;;;22.38;3.75;;;13.80;99.90;;;;;;5072507;28;20057;-75
2022/10/02 01:46:11;;;;;;;21.83;4.07;;;13.90;99.90;;;;;;5073231;28;20396;-76
2022/10/02 01:48:51;;;;;;;18.42;3.88;;;13.80;99.90;;;;;;5072238;28;20020;-76
2022/10/02 01:51:38;;;;;;;29.13;4.77;;;13.80;99.90;;;;;;5073037;28;20032;-76
2022/10/02 01:54:22;;;;;;;18.73;3.80;;;13.80;99.90;;;;;;5073227;28;20275;-77
2022/10/02 01:57:09;;;;;;;20.75;3.75;;;13.70;99.90;;;;;;5060639;28;20022;-76
2022/10/02 02:00:06;;;;;;;13.85;3.67;;;13.70;99.90;;;;;;5073093;28;20410;-76
2022/10/02 02:03:04;;;;;;;16.15;3.83;;;13.70;99.90;;;;;;5072286;28;20033;-77
2022/10/02 02:05:45;;;;;;;19.05;3.72;;;13.70;99.90;;;;;;5006674;28;20041;-77
2022/10/02 02:08:32;;;;;;;20.35;3.25;;;13.70;99.90;;;;;;5070789;28;20023;-76
2022/10/02 02:11:06;;;;;;;24.15;4.43;;;13.80;99.90;;;;;;5072099;28;20031;-76
2022/10/02 02:13:44;;;;;;;19.00;3.80;;;13.80;99.90;;;;;;5058718;28;20020;-76
2022/10/02 02:16:22;;;;;;;30.02;4.65;;;13.80;99.90;;;;;;5073033;28;20021;-76
2022/10/02 02:19:13;;;;;;;22.95;3.67;;;13.70;99.90;;;;;;5060083;28;20032;-75
2022/10/02 02:21:49;;;;;;;16.00;3.58;;;13.70;99.90;;;;;;5071374;28;20044;-77
2022/10/02 02:24:21;;;;;;;16.30;3.22;;;13.70;99.90;;;;;;5062549;28;20048;-76
2022/10/02 02:26:47;;;;;;;17.48;3.53;;;13.60;99.90;;;;;;5069860;28;20017;-77
2022/10/02 02:29:15;;;;;;;22.08;3.65;;;13.60;99.90;;;;;;5072759;28;20461;-76
2022/10/02 02:31:51;;;;;;;21.45;4.03;;;13.50;99.90;;;;;;5071235;28;20078;-76
2022/10/02 02:34:22;;;;;;;17.27;3.22;;;13.60;99.90;;;;;;5072643;28;20025;-76
2022/10/02 02:36:53;;;;;;;17.13;3.22;;;13.50;99.90;;;;;;5071782;28;20485;-76
2022/10/02 02:39:38;;;;;;;15.80;3.08;;;13.50;99.90;;;;;;5071844;28;20025;-77
2022/10/02 02:42:07;;;;;;;21.42;3.55;;;13.50;99.90;;;;;;5058534;28;20047;-77
2022/10/02 02:44:54;;;;;;;18.70;3.50;;;13.50;99.90;;;;;;5071435;28;20155;-76
2022/10/02 02:47:27;;;;;;;19.33;3.38;;;13.50;99.90;;;;;;5072195;28;20024;-75
2022/10/02 02:50:20;;;;;;;19.88;2.97;;;13.40;99.90;;;;;;5072429;28;20039;-76
2022/10/02 02:52:53;;;;;;;20.45;4.00;;;13.40;99.90;;;;;;5062956;28;20040;-76
2022/10/02 02:55:24;;;;;;;31.48;4.43;;;13.40;99.90;;;;;;5072284;28;20103;-77
2022/10/02 02:58:01;;;;;;;21.88;4.03;;;13.40;99.90;;;;;;5072569;28;20380;-77
2022/10/02 03:00:29;;;;;;;21.08;3.08;;;13.40;99.90;;;;;;5071618;28;20040;-76
2022/10/02 03:02:55;;;;;;;18.80;3.42;;;13.40;99.90;;;;;;5072760;28;20104;-77
2022/10/02 03:05:23;;;;;;;23.13;3.88;;;13.40;99.90;;;;;;5072335;28;20124;-77
2022/10/02 03:07:58;;;;;;;15.82;3.85;;;13.50;99.90;;;;;;5071540;28;20370;-77
2022/10/02 03:10:42;;;;;;;16.98;3.10;;;13.40;99.90;;;;;;5072116;28;20043;-77
2022/10/02 03:13:29;;;;;;;14.27;3.00;;;13.30;99.90;;;;;;5071802;28;20040;-77
2022/10/02 03:16:01;;;;;;;11.85;3.22;;;13.30;99.90;;;;;;5072367;28;20025;-76
2022/10/02 03:18:43;;;;;;;23.42;3.90;;;13.30;99.90;;;;;;5071743;28;20020;-76
2022/10/02 03:21:29;;;;;;;20.08;3.80;;;13.30;99.90;;;;;;5074579;28;20132;-76
2022/10/02 03:24:11;;;;;;;20.67;4.05;;;13.40;99.90;;;;;;5063924;28;20036;-76
2022/10/02 03:27:15;;;;;;;13.52;3.13;;;13.50;99.90;;;;;;5075795;28;20488;-76
2022/10/02 03:29:50;;;;;;;23.23;3.40;;;13.50;99.90;;;;;;5021856;28;20033;-76
2022/10/02 03:32:18;;;;;;;21.17;3.58;;;13.60;99.90;;;;;;5062616;28;20086;-76
2022/10/02 03:34:43;;;;;;;11.82;2.78;;;13.60;99.90;;;;;;5075202;28;20032;-76
2022/10/02 03:37:09;;;;;;;26.30;3.88;;;13.60;99.90;;;;;;5075868;28;20384;-76
2022/10/02 03:39:42;;;;;;;12.13;3.45;;;13.60;99.90;;;;;;5075795;28;20070;-76
2022/10/02 03:42:12;;;;;;;21.88;3.25;;;13.60;99.90;;;;;;5075220;28;20055;-76
2022/10/02 03:44:38;;;;;;;17.77;3.75;;;13.50;99.90;;;;;;5075692;28;20392;-76
2022/10/02 03:47:04;;;;;;;17.08;3.20;;;13.50;99.90;;;;;;5075541;28;20042;-77
2022/10/02 03:49:29;;;;;;;17.17;3.97;;;13.50;99.90;;;;;;5074685;28;20115;-77
2022/10/02 03:51:55;;;;;;;17.42;3.17;;;13.40;99.90;;;;;;5075313;28;20025;-77
2022/10/02 03:54:21;;;;;;;19.90;3.78;;;13.40;99.90;;;;;;5075108;28;20029;-76
2022/10/02 03:57:02;;;;;;;15.27;3.28;;;13.30;99.90;;;;;;5074614;28;20025;-77
2022/10/02 03:59:53;;;;;;;17.83;3.35;;;13.30;99.90;;;;;;5075017;28;20020;-77
2022/10/02 04:02:40;;;;;;;17.13;3.80;;;13.20;99.90;;;;;;5074810;28;20032;-77
2022/10/02 04:05:17;;;;;;;18.20;3.53;;;13.20;99.90;;;;;;5062048;28;20032;-76
2022/10/02 04:07:45;;;;;;;19.75;3.55;;;13.10;99.90;;;;;;5075007;28;20031;-76
2022/10/02 04:10:43;;;;;;;17.95;3.30;;;13.00;99.90;;;;;;5074627;28;20488;-77
2022/10/02 04:13:29;;;;;;;16.58;3.25;;;12.90;99.90;;;;;;5075030;28;20384;-77
2022/10/02 04:16:07;;;;;;;15.00;3.30;;;12.80;99.90;;;;;;5075649;28;20459;-77
2022/10/02 04:19:02;;;;;;;16.60;3.05;;;12.70;99.90;;;;;;5074860;28;20035;-77
2022/10/02 04:21:40;;;;;;;16.08;3.08;;;12.60;99.90;;;;;;5074578;28;20048;-77
2022/10/02 04:24:27;;;;;;;12.52;2.70;;;12.50;99.90;;;;;;5074125;28;20545;-77
2022/10/02 04:26:59;;;;;;;19.33;3.75;;;12.50;99.90;;;;;;5075187;28;20020;-77
2022/10/02 04:29:31;;;;;;;11.32;3.58;;;12.50;99.90;;;;;;5075220;28;20082;-77
2022/10/02 04:32:11;;;;;;;20.35;3.50;;;12.50;99.90;;;;;;5074453;28;20036;-77
2022/10/02 04:34:37;;;;;;;22.75;3.95;;;12.50;99.90;;;;;;5075184;28;20104;-76
2022/10/02 04:37:22;;;;;;;20.05;4.03;;;12.50;99.90;;;;;;5074305;28;20484;-77
2022/10/02 04:40:05;;;;;;;18.10;3.33;;;12.60;99.90;;;;;;5074585;28;20032;-76
2022/10/02 04:42:46;;;;;;;16.70;3.15;;;12.60;99.90;;;;;;5074621;28;20024;-77
2022/10/02 04:45:36;;;;;;;18.98;3.45;;;12.60;99.90;;;;;;5073871;28;20496;-77
2022/10/02 04:48:19;;;;;;;20.25;4.05;;;12.60;99.90;;;;;;5074808;28;20028;-77
2022/10/02 04:50:56;;;;;;;19.63;4.47;;;12.60;99.90;;;;;;5074426;28;20036;-77
2022/10/02 04:54:04;;;;;;;19.67;3.45;;;12.60;99.90;;;;;;5073845;28;20020;-76
2022/10/02 04:56:49;;;;;;;18.65;3.65;;;12.60;99.90;;;;;;5074337;28;20024;-76
2022/10/02 04:59:54;;;;;;;20.85;3.83;;;12.70;99.90;;;;;;5058999;28;20033;-76
2022/10/02 05:02:41;;;;;;;18.15;2.90;;;12.80;99.90;;;;;;5074531;28;20036;-77
2022/10/02 05:05:44;;;;;;;23.05;4.20;;;12.70;99.90;;;;;;5061242;28;20476;-76
2022/10/02 05:08:39;;;;;;;24.08;3.55;;;12.80;99.90;;;;;;5073970;28;20384;-76
2022/10/02 05:11:25;;;;;;;24.33;3.95;;;12.80;99.90;;;;;;5074205;28;20028;-76
2022/10/02 05:14:32;;;;;;;11.07;2.60;;;12.80;99.90;;;;;;5063327;28;20043;-76
2022/10/02 05:17:25;;;;;;;23.63;2.97;;;12.90;99.90;;;;;;5003834;28;20038;-76
2022/10/02 05:20:00;;;;;;;16.55;3.42;;;12.90;99.90;;;;;;5069453;28;20033;-76
2022/10/02 05:22:51;;;;;;;17.10;3.65;;;12.90;99.90;;;;;;5072017;28;20113;-75
2022/10/02 05:25:28;;;;;;;24.63;4.07;;;13.00;99.90;;;;;;5067993;28;20052;-77
2022/10/02 05:28:31;;;;;;;17.02;4.38;;;13.00;99.90;;;;;;5070396;28;20476;-74
2022/10/02 05:31:17;;;;;;;16.42;3.42;;;13.10;99.90;;;;;;5070571;28;20021;-75
2022/10/02 05:34:14;;;;;;;14.38;2.63;;;13.10;99.90;;;;;;5069713;28;20029;-75
2022/10/02 05:36:56;;;;;;;31.40;3.35;;;13.10;99.90;;;;;;5074061;28;20020;-75
2022/10/02 05:39:30;;;;;;;13.13;2.85;;;13.20;99.90;;;;;;5069961;28;20108;-75
2022/10/02 05:42:27;;;;;;;26.17;3.00;;;13.20;99.90;;;;;;5067013;28;20031;-75
2022/10/02 05:45:00;;;;;;;15.52;3.65;;;13.30;99.90;;;;;;5061401;28;20041;-75
2022/10/02 05:47:41;;;;;;;23.23;3.53;;;13.40;99.90;;;;;;5068153;28;20128;-74
2022/10/02 05:50:28;;;;;;;9.00;2.63;;;13.40;99.90;;;;;;5067530;28;20504;-74
2022/10/02 05:52:59;;;;;;;17.25;2.97;;;13.40;99.90;;;;;;5069198;28;20031;-74
2022/10/02 05:55:34;;;;;;;12.63;3.00;;;13.40;99.90;;;;;;5070231;28;20028;-76
2022/10/02 05:58:24;;;;;;;25.17;2.95;;;13.30;99.90;;;;;;5066789;28;20056;-75
2022/10/02 06:01:10;;;;;;;17.27;2.75;;;13.30;99.90;;;;;;5071339;28;20448;-75
2022/10/02 06:03:54;;;;;;;16.33;3.10;;;13.10;99.90;;;;;;5065958;28;20112;-76
2022/10/02 06:06:35;;;;;;;18.60;3.30;;;13.20;99.90;;;;;;5067067;28;20033;-76
2022/10/02 06:09:13;;;;;;;16.75;2.90;;;13.10;99.90;;;;;;5069441;28;20100;-75
2022/10/02 06:12:00;;;;;;;26.60;3.83;;;13.10;99.90;;;;;;5069321;28;20549;-75
2022/10/02 06:14:49;;;;;;;64.90;35.72;;;13.10;99.90;;;;;;5070904;28;20025;-76
2022/10/02 06:17:39;;;;;;;24.30;7.40;;;13.10;99.90;;;;;;5070752;28;20096;-76
2022/10/02 06:20:23;;;;;;;17.88;5.05;;;13.20;99.90;;;;;;5066407;28;20384;-75
2022/10/02 06:23:06;;;;;;;19.13;5.53;;;13.30;99.90;;;;;;5068609;28;20058;-76
2022/10/02 06:25:38;;;;;;;17.77;4.43;;;13.20;99.90;;;;;;5068891;28;20076;-76
2022/10/02 06:28:32;;;;;;;16.92;3.85;;;13.20;99.90;;;;;;5070139;28;20020;-76
2022/10/02 06:31:04;;;;;;;16.52;3.40;;;13.40;99.90;;;;;;5072968;28;20016;-76
2022/10/02 06:33:32;;;;;;;18.17;3.80;;;13.40;99.90;;;;;;5069801;28;20082;-76
2022/10/02 06:36:20;;;;;;;16.88;3.10;;;13.50;99.90;;;;;;5068794;28;20012;-76
2022/10/02 06:39:10;;;;;;;12.20;3.08;;;13.50;99.90;;;;;;5062095;28;20017;-75
2022/10/02 06:41:48;;;;;;;23.63;4.32;;;13.50;99.90;;;;;;5062405;28;20025;-75
2022/10/02 06:44:47;;;;;;;16.45;3.08;;;13.60;99.90;;;;;;5068098;28;20028;-75
2022/10/02 06:47:24;;;;;;;11.95;3.67;;;13.60;99.90;;;;;;5066901;28;20033;-75
2022/10/02 06:50:18;;;;;;;17.20;2.85;;;13.70;99.90;;;;;;5065633;28;20473;-76
2022/10/02 06:53:00;;;;;;;13.32;2.83;;;13.70;99.90;;;;;;5065910;28;20805;-76
2022/10/02 06:55:34;;;;;;;19.13;3.90;;;13.80;99.90;;;;;;5069402;28;20058;-75
2022/10/02 06:58:09;;;;;;;9.32;2.95;;;13.70;99.90;;;;;;5069658;28;20062;-76
2022/10/02 07:01:20;;;;;;;16.70;2.67;;;13.80;99.90;;;;;;5070247;28;20028;-75
2022/10/02 07:04:08;;;;;;;10.05;2.70;;;13.80;99.90;;;;;;5045767;28;20036;-75
2022/10/02 07:06:55;;;;;;;18.70;3.15;;;13.90;99.90;;;;;;5069204;28;20040;-76
2022/10/02 07:09:39;;;;;;;14.25;2.83;;;13.90;99.90;;;;;;5070249;28;20550;-74
2022/10/02 07:12:24;;;;;;;10.45;2.45;;;14.00;99.90;;;;;;5070018;28;20373;-74
2022/10/02 07:14:53;;;;;;;19.45;2.95;;;14.00;99.90;;;;;;5033951;28;20037;-75
2022/10/02 07:17:33;;;;;;;14.10;3.95;;;14.10;99.90;;;;;;5070210;28;20052;-75
2022/10/02 07:20:42;;;;;;;10.25;2.65;;;14.10;99.90;;;;;;5069618;28;20612;-76
2022/10/02 07:23:49;;;;;;;27.67;3.85;;;14.10;99.90;;;;;;4972620;28;20078;-76
2022/10/02 07:26:59;;;;;;;8.30;2.30;;;14.20;99.90;;;;;;5062724;28;20419;-75
2022/10/02 07:29:42;;;;;;;13.57;2.47;;;14.20;99.90;;;;;;5066833;28;20025;-75
2022/10/02 07:32:23;;;;;;;13.23;2.03;;;14.20;99.90;;;;;;5066929;28;20269;-76
2022/10/02 07:35:04;;;;;;;;;;;14.30;99.90;;;;;;5069514;28;20719;-76
2022/10/02 07:37:50;;;;;;;14.40;3.63;;;14.30;99.90;;;;;;5065678;28;19904;-75
2022/10/02 07:40:41;;;;;;;12.88;2.92;;;14.40;99.90;;;;;;5066901;28;20119;-78
2022/10/02 07:43:12;;;;;;;8.82;2.65;;;14.30;99.90;;;;;;5063497;28;20029;-77
2022/10/02 07:45:50;;;;;;;20.05;3.42;;;14.40;99.90;;;;;;5061647;28;20174;-76
2022/10/02 07:48:54;;;;;;;19.63;2.92;;;14.40;99.90;;;;;;5063130;28;20028;-77
2022/10/02 07:51:52;;;;;;;13.23;3.38;;;14.50;99.90;;;;;;5066506;28;20086;-76
2022/10/02 07:54:20;;;;;;;14.25;2.63;;;14.50;99.90;;;;;;5057980;28;20151;-76
2022/10/02 07:56:47;;;;;;;24.95;2.97;;;14.70;99.90;;;;;;5069787;28;20043;-76
2022/10/02 07:59:16;;;;;;;9.10;2.42;;;14.80;99.90;;;;;;5069948;28;20031;-76
2022/10/02 08:01:43;;;;;;;17.20;3.85;;;14.90;99.90;;;;;;5067667;28;20063;-76
2022/10/02 08:04:23;;;;;;;10.75;2.58;;;14.90;99.90;;;;;;5069799;28;20044;-76
2022/10/02 08:06:56;;;;;;;12.68;2.28;;;15.00;99.90;;;;;;5067643;28;20044;-75
2022/10/02 08:09:33;;;;;;;17.70;3.42;;;15.10;99.90;;;;;;5055290;28;20094;-77
2022/10/02 08:12:10;;;;;;;15.02;3.13;;;15.10;99.90;;;;;;5054344;28;20060;-76
2022/10/02 08:14:39;;;;;;;20.83;4.22;;;15.20;99.90;;;;;;5066038;28;20025;-76
2022/10/02 08:17:22;;;;;;;17.13;5.70;;;15.10;99.90;;;;;;5069787;28;20464;-74
2022/10/02 08:19:50;;;;;;;30.05;8.43;;;15.20;99.90;;;;;;5070328;28;20024;-75
2022/10/02 08:22:39;;;;;;;16.70;6.50;;;15.20;99.90;;;;;;5054090;28;20124;-75
2022/10/02 08:25:29;;;;;;;19.40;6.20;;;15.20;99.90;;;;;;5054748;28;20507;-76
2022/10/02 08:28:04;;;;;;;17.98;6.15;;;15.30;99.90;;;;;;5064420;28;21083;-74
2022/10/02 08:30:29;;;;;;;16.42;3.88;;;15.40;99.90;;;;;;5069425;28;20028;-74
2022/10/02 08:32:55;;;;;;;12.55;3.35;;;15.40;99.90;;;;;;5062721;28;20079;-75
2022/10/02 08:35:33;;;;;;;19.30;3.67;;;15.40;99.90;;;;;;5069550;28;20464;-76
2022/10/02 08:38:34;;;;;;;13.05;3.22;;;15.50;99.90;;;;;;5070390;28;20103;-75
2022/10/02 08:41:30;;;;;;;13.45;2.78;;;15.50;99.90;;;;;;5071693;28;20095;-74
2022/10/02 08:44:20;;;;;;;18.70;4.60;;;15.50;99.90;;;;;;5073500;28;20024;-74
2022/10/02 08:47:08;;;;;;;13.88;2.40;;;15.60;99.90;;;;;;5074826;28;20033;-76
2022/10/02 08:49:56;;;;;;;24.08;2.65;;;15.70;99.90;;;;;;5063800;28;20017;-74
2022/10/02 08:52:36;;;;;;;11.68;2.72;;;15.80;99.90;;;;;;5066533;28;20028;-75
2022/10/02 08:55:13;;;;;;;16.55;3.15;;;15.90;99.90;;;;;;5072284;28;20025;-76
2022/10/02 08:57:57;;;;;;;12.02;3.40;;;16.10;99.90;;;;;;5064541;28;20028;-76
2022/10/02 09:00:57;;;;;;;17.10;3.67;;;16.10;99.90;;;;;;5069591;28;20025;-76
2022/10/02 09:04:08;;;;;;;13.30;2.83;;;16.30;99.90;;;;;;5052602;28;20032;-79
2022/10/02 09:06:51;;;;;;;11.20;2.80;;;16.40;99.90;;;;;;5066756;28;20044;-76
2022/10/02 09:09:41;;;;;;;15.50;3.47;;;16.50;99.90;;;;;;5070772;28;20537;-77
2022/10/02 09:12:09;;;;;;;14.95;2.95;;;16.10;99.90;;;;;;5067028;28;20032;-75
2022/10/02 09:14:50;;;;;;;20.50;3.88;;;16.60;99.90;;;;;;5070125;28;20379;-77
2022/10/02 09:17:41;;;;;;;16.85;3.00;;;16.70;99.90;;;;;;5070371;28;20120;-75
2022/10/02 09:20:39;;;;;;;15.38;3.15;;;16.70;99.90;;;;;;5070766;28;20559;-75
2022/10/02 09:23:20;;;;;;;12.32;3.25;;;16.70;99.90;;;;;;5054193;28;20045;-74
2022/10/02 09:26:01;;;;;;;15.73;3.05;;;16.70;99.90;;;;;;5053457;28;20040;-76
2022/10/02 09:29:01;;;;;;;9.40;2.45;;;16.70;99.90;;;;;;5060671;28;20095;-75
2022/10/02 09:31:57;;;;;;;13.95;3.55;;;16.70;99.90;;;;;;5026117;28;20033;-75
2022/10/02 09:35:00;;;;;;;11.93;2.22;;;16.70;99.90;;;;;;5072068;28;20024;-75
2022/10/02 09:37:36;;;;;;;10.43;2.45;;;16.70;99.90;;;;;;5071519;28;20029;-75
2022/10/02 09:40:53;;;;;;;10.55;2.47;;;16.80;99.90;;;;;;5060046;28;20021;-75
2022/10/02 09:43:24;;;;;;;17.10;2.67;;;16.90;99.90;;;;;;5066730;28;20029;-75
2022/10/02 09:46:09;;;;;;;16.83;3.55;;;17.10;99.90;;;;;;5071388;28;20025;-75
2022/10/02 09:48:49;;;;;;;12.75;2.17;;;17.20;99.90;;;;;;5070589;28;20032;-75
2022/10/02 09:51:30;;;;;;;16.65;2.67;;;17.20;99.90;;;;;;5072552;28;20025;-75
2022/10/02 09:54:02;;;;;;;10.90;3.10;;;17.20;99.90;;;;;;5069295;28;20027;-75
2022/10/02 09:56:46;;;;;;;21.63;3.15;;;17.30;99.90;;;;;;5068028;28;20028;-75
2022/10/02 09:59:47;;;;;;;11.95;3.40;;;17.20;99.90;;;;;;5070941;28;20021;-75
2022/10/02 10:06:06;;;;;;;15.30;3.17;;;17.30;99.90;;;;;;5066289;28;20052;-75
2022/10/02 10:08:59;;;;;;;13.63;2.78;;;17.30;99.90;;;;;;5064002;28;20021;-75
2022/10/02 10:12:07;;;;;;;11.90;2.20;;;17.30;99.90;;;;;;5066219;28;20036;-74
2022/10/02 10:15:03;;;;;;;8.68;1.70;;;17.40;99.90;;;;;;5062252;28;20104;-73
2022/10/02 10:18:08;;;;;;;8.02;2.25;;;17.30;99.90;;;;;;5070113;28;20020;-75
2022/10/02 10:20:49;;;;;;;17.05;2.55;;;17.30;99.90;;;;;;5070396;28;20021;-74
2022/10/02 10:23:19;;;;;;;;;;;17.50;99.90;;;;;;5067002;28;20032;-75
2022/10/02 10:26:08;;;;;;;12.73;2.30;;;17.60;99.90;;;;;;5064194;28;20361;-75
2022/10/02 10:28:58;;;;;;;14.30;2.92;;;17.60;99.90;;;;;;5054965;28;20040;-75
2022/10/02 10:31:58;;;;;;;12.70;2.20;;;17.70;99.90;;;;;;5063279;28;20017;-75
2022/10/02 10:35:01;;;;;;;13.00;3.03;;;17.60;99.90;;;;;;5069894;28;20294;-75
2022/10/02 10:41:05;;;;;;;10.45;2.53;;;17.60;99.90;;;;;;5070904;28;20519;-75
2022/10/02 10:43:58;;;;;;;9.15;2.47;;;17.60;99.90;;;;;;5056023;28;20591;-76
2022/10/02 10:46:42;;;;;;;13.73;2.53;;;17.60;99.90;;;;;;5051866;28;20059;-75
2022/10/02 10:49:36;;;;;;;17.55;2.75;;;17.50;99.90;;;;;;5051849;28;20059;-74
2022/10/02 10:52:20;;;;;;;12.18;2.63;;;17.30;99.90;;;;;;5051338;28;20021;-76
2022/10/02 10:54:54;;;;;;;15.35;2.63;;;17.30;99.90;;;;;;5071553;28;20032;-75
2022/10/02 10:57:50;;;;;;;12.57;2.80;;;17.20;99.90;;;;;;5072512;28;20024;-76
2022/10/02 11:00:38;;;;;;;15.85;3.00;;;17.30;99.90;;;;;;5061249;28;20090;-75
2022/10/02 11:03:06;;;;;;;13.40;2.25;;;17.30;99.90;;;;;;5071802;28;20016;-75
2022/10/02 11:05:38;;;;;;;17.55;2.95;;;17.40;99.90;;;;;;5071434;28;20036;-75
2022/10/02 11:08:05;;;;;;;14.60;2.70;;;17.50;99.90;;;;;;5062353;28;20024;-75
2022/10/02 11:11:20;;;;;;;10.65;2.47;;;17.50;99.90;;;;;;5066626;28;20031;-74
2022/10/02 11:14:07;;;;;;;12.35;3.00;;;17.50;99.90;;;;;;5044850;28;20082;-74
2022/10/02 11:17:00;;;;;;;13.27;3.08;;;17.50;99.90;;;;;;5066608;28;20102;-74
2022/10/02 11:19:44;;;;;;;9.80;2.17;;;17.50;99.90;;;;;;5067394;28;20078;-74
2022/10/02 11:22:25;;;;;;;6.78;2.03;;;17.60;99.90;;;;;;5067016;28;20048;-74
2022/10/02 11:25:18;;;;;;;9.55;2.13;;;17.60;99.90;;;;;;5067182;28;20119;-75
2022/10/02 11:28:05;;;;;;;13.05;2.55;;;17.70;99.90;;;;;;5061021;28;20380;-75
2022/10/02 11:30:41;;;;;;;14.02;3.10;;;17.70;99.90;;;;;;5067311;28;20031;-75
2022/10/02 11:33:16;;;;;;;10.38;2.25;;;17.80;99.90;;;;;;5068110;28;20027;-74
2022/10/02 11:36:09;;;;;;;9.02;2.15;;;17.80;99.90;;;;;;5068186;28;20020;-75
2022/10/02 11:38:53;;;;;;;14.70;2.75;;;17.80;99.90;;;;;;5068184;28;20070;-74
2022/10/02 11:41:31;;;;;;;14.10;2.08;;;17.80;99.90;;;;;;5071590;28;20376;-74
2022/10/02 11:44:24;;;;;;;9.25;1.92;;;17.80;99.90;;;;;;5069798;28;20041;-74
2022/10/02 11:47:18;;;;;;;12.07;2.42;;;17.70;99.90;;;;;;5071008;28;20041;-74
2022/10/02 11:50:18;;;;;;;8.10;1.73;;;17.70;99.90;;;;;;5072233;28;20024;-76
2022/10/02 11:53:09;;;;;;;14.15;2.40;;;17.90;99.90;;;;;;5071668;28;20063;-74
2022/10/02 11:56:07;;;;;;;10.98;1.75;;;18.00;99.90;;;;;;5072640;28;20028;-74
2022/10/02 11:59:00;;;;;;;10.60;1.80;;;18.20;99.90;;;;;;5037263;28;20078;-75
2022/10/02 12:01:34;;;;;;;11.93;2.25;;;18.20;99.90;;;;;;5066498;28;20442;-75
2022/10/02 12:04:28;;;;;;;12.82;1.88;;;18.30;99.90;;;;;;5072396;28;20423;-75
2022/10/02 12:07:03;;;;;;;11.57;2.83;;;18.40;99.90;;;;;;5072647;28;20016;-75
2022/10/02 12:09:45;;;;;;;15.02;2.60;;;18.40;99.90;;;;;;5073011;28;20024;-75
2022/10/02 12:12:30;;;;;;;8.18;1.77;;;18.40;99.90;;;;;;5070298;28;20379;-75
2022/10/02 12:14:55;;;;;;;11.55;2.30;;;18.40;99.90;;;;;;5064718;28;20028;-74
2022/10/02 12:18:00;;;;;;;13.90;2.70;;;18.40;99.90;;;;;;5057133;28;20037;-75
2022/10/02 12:29:39;;;;;;;11.57;2.70;;;17.50;99.90;;;;;;5059162;28;20024;-74
2022/10/02 12:32:35;;;;;;;8.73;2.28;;;17.40;99.90;;;;;;5054805;28;20024;-76
2022/10/02 12:35:37;;;;;;;18.80;2.50;;;17.30;99.90;;;;;;5060963;28;20048;-75
2022/10/02 12:38:08;;;;;;;19.15;3.35;;;17.20;99.90;;;;;;5063920;28;20017;-75
2022/10/02 12:40:54;;;;;;;14.45;2.63;;;17.20;99.90;;;;;;5054154;28;20377;-74
2022/10/02 12:43:52;;;;;;;11.50;2.13;;;17.20;99.90;;;;;;5054562;28;20525;-76
2022/10/02 12:46:44;;;;;;;14.45;3.15;;;17.20;99.90;;;;;;5054749;28;20040;-75
2022/10/02 12:49:46;;;;;;;12.90;2.47;;;17.20;99.90;;;;;;5054551;28;20071;-76
2022/10/02 12:52:26;;;;;;;9.77;2.97;;;17.20;99.90;;;;;;5043362;28;20048;-75
2022/10/02 12:55:09;;;;;;;17.10;3.72;;;17.30;99.90;;;;;;5060890;28;20115;-76
2022/10/02 12:57:59;;;;;;;19.98;3.22;;;17.20;99.90;;;;;;5073452;28;20082;-76
2022/10/02 13:00:48;;;;;;;10.50;2.85;;;17.30;99.90;;;;;;5073907;28;20048;-76
2022/10/02 13:03:52;;;;;;;14.48;3.28;;;17.40;99.90;;;;;;5074532;28;20013;-76
2022/10/02 13:06:45;;;;;;;14.82;2.60;;;17.50;99.90;;;;;;5075284;28;20094;-75
2022/10/02 13:09:34;;;;;;;14.27;2.70;;;17.70;99.90;;;;;;5074242;28;20020;-76
2022/10/02 13:12:18;;;;;;;12.13;2.70;;;17.90;99.90;;;;;;5061201;28;20029;-76
2022/10/02 13:15:15;;;;;;;12.65;2.42;;;18.00;99.90;;;;;;5073438;28;20028;-76
2022/10/02 13:18:14;;;;;;;11.60;2.55;;;18.10;99.90;;;;;;5073193;28;20384;-76
2022/10/02 13:20:56;;;;;;;7.97;2.20;;;18.00;99.90;;;;;;5062817;28;20484;-77
2022/10/02 13:23:30;;;;;;;6.82;2.13;;;18.10;99.90;;;;;;5074174;28;20115;-76
2022/10/02 13:26:47;;;;;;;12.18;2.80;;;18.20;99.90;;;;;;5073614;28;20048;-76
2022/10/02 13:29:41;;;;;;;12.85;2.85;;;18.30;99.90;;;;;;4992365;28;20030;-76
2022/10/02 13:32:18;;;;;;;14.90;2.20;;;18.30;99.90;;;;;;5072618;28;20017;-76
2022/10/02 13:35:44;;;;;;;14.38;2.10;;;18.20;99.90;;;;;;5073464;28;20418;-76
2022/10/02 13:38:23;;;;;;;12.32;2.03;;;17.90;99.90;;;;;;5024547;28;20029;-76
2022/10/02 13:40:56;;;;;;;7.50;2.15;;;17.80;99.90;;;;;;5017872;28;20034;-76
2022/10/02 13:43:41;;;;;;;12.07;2.10;;;17.70;99.90;;;;;;5045254;28;20103;-75
2022/10/02 13:46:29;;;;;;;12.30;2.75;;;17.80;99.90;;;;;;5061485;28;20140;-75
2022/10/02 13:49:15;;;;;;;17.42;3.15;;;18.00;99.90;;;;;;5075461;28;20346;-74
2022/10/02 13:52:06;;;;;;;9.48;2.88;;;17.90;99.90;;;;;;5075947;28;20025;-76
2022/10/02 13:54:52;;;;;;;12.15;2.35;;;17.90;99.90;;;;;;5070659;28;20122;-76
2022/10/02 13:57:26;;;;;;;11.80;2.58;;;18.00;99.90;;;;;;5073062;28;20112;-78
2022/10/02 14:00:39;;;;;;;18.70;3.03;;;18.20;99.90;;;;;;5072812;28;20024;-75
2022/10/02 14:03:13;;;;;;;14.00;2.95;;;18.30;99.90;;;;;;5072725;28;20084;-75
2022/10/02 14:06:11;;;;;;;12.02;3.20;;;18.40;99.90;;;;;;5073025;28;20123;-75
2022/10/02 14:08:48;;;;;;;10.10;2.60;;;18.30;99.90;;;;;;5060594;28;20095;-75
2022/10/02 14:11:46;;;;;;;13.75;2.20;;;18.00;99.90;;;;;;5073152;28;20074;-76
2022/10/02 14:14:43;;;;;;;12.85;2.00;;;17.70;99.90;;;;;;5072219;28;20108;-76
2022/10/02 14:17:27;;;;;;;14.13;2.88;;;17.50;99.90;;;;;;5061470;28;20028;-74